sensor_id;sensor_type;location;lat;lon;timestamp;pressure;altitude;pressure_sealevel;temperature;humidity
1207;BME280;593;53.184;8.216;2022-11-15T00:00:19;100598.44;;;10.18;100.00
1207;BME280;593;53.184;8.216;2022-11-15T00:02:44;100598.13;;;10.20;100.00
1207;BME280;593;53.184;8.216;2022-11-15T00:05:10;100588.66;;;10.12;100.00
1207;BME280;593;53.184;8.216;2022-11-15T00:07:35;100601.66;;;10.20;100.00
1207;BME280;593;53.184;8.216;2022-11-15T00:10:00;100601.66;;;10.20;100.00
1207;BME280;593;53.184;8.216;2022-11-15T00:12:27;100575.03;;;10.17;100.00
1207;BME280;593;53.184;8.216;2022-11-15T00:14:53;100593.28;;;10.17;100.00
1207;BME280;593;53.184;8.216;2022-11-15T00:17:18;100581.84;;;10.10;100.00
1207;BME280;593;53.184;8.216;2022-11-15T00:19:43;100590.84;;;10.15;100.00
1207;BME280;593;53.184;8.216;2022-11-15T00:22:08;100576.41;;;10.10;100.00
1207;BME280;593;53.184;8.216;2022-11-15T00:24:34;100544.00;;;9.80;100.00
1207;BME280;593;53.184;8.216;2022-11-15T00:26:59;100590.59;;;10.07;100.00
1207;BME280;593;53.184;8.216;2022-11-15T00:29:25;100592.47;;;10.11;100.00
1207;BME280;593;53.184;8.216;2022-11-15T00:31:50;100567.81;;;9.98;100.00
1207;BME280;593;53.184;8.216;2022-11-15T00:34:15;100583.22;;;10.07;100.00
1207;BME280;593;53.184;8.216;2022-11-15T00:36:40;100568.09;;;9.96;100.00
1207;BME280;593;53.184;8.216;2022-11-15T00:39:06;100557.03;;;9.83;100.00
1207;BME280;593;53.184;8.216;2022-11-15T00:41:31;100566.50;;;9.85;100.00
1207;BME280;593;53.184;8.216;2022-11-15T00:43:56;100594.72;;;9.99;100.00
1207;BME280;593;53.184;8.216;2022-11-15T00:46:22;100580.38;;;9.89;100.00
1207;BME280;593;53.184;8.216;2022-11-15T00:48:47;100600.16;;;9.99;100.00
1207;BME280;593;53.184;8.216;2022-11-15T00:51:12;100596.63;;;9.99;100.00
1207;BME280;593;53.184;8.216;2022-11-15T00:53:37;100594.16;;;9.97;100.00
1207;BME280;593;53.184;8.216;2022-11-15T00:56:03;100590.09;;;9.95;100.00
1207;BME280;593;53.184;8.216;2022-11-15T00:58:28;100588.22;;;9.90;100.00
1207;BME280;593;53.184;8.216;2022-11-15T01:00:54;100561.69;;;9.72;100.00
1207;BME280;593;53.184;8.216;2022-11-15T01:03:20;100586.63;;;9.89;100.00
1207;BME280;593;53.184;8.216;2022-11-15T01:05:45;100549.78;;;9.63;100.00
1207;BME280;593;53.184;8.216;2022-11-15T01:08:16;100597.78;;;9.83;100.00
1207;BME280;593;53.184;8.216;2022-11-15T01:10:42;100587.22;;;9.76;100.00
1207;BME280;593;53.184;8.216;2022-11-15T01:13:07;100587.47;;;9.75;100.00
1207;BME280;593;53.184;8.216;2022-11-15T01:15:33;100594.84;;;9.74;100.00
1207;BME280;593;53.184;8.216;2022-11-15T01:17:58;100581.81;;;9.71;100.00
1207;BME280;593;53.184;8.216;2022-11-15T01:20:23;100585.63;;;9.65;100.00
1207;BME280;593;53.184;8.216;2022-11-15T01:22:48;100591.03;;;9.70;100.00
1207;BME280;593;53.184;8.216;2022-11-15T01:25:14;100581.31;;;9.64;100.00
1207;BME280;593;53.184;8.216;2022-11-15T01:27:39;100576.66;;;9.64;100.00
1207;BME280;593;53.184;8.216;2022-11-15T01:30:05;100578.28;;;9.65;100.00
1207;BME280;593;53.184;8.216;2022-11-15T01:32:31;100567.16;;;9.62;100.00
1207;BME280;593;53.184;8.216;2022-11-15T01:34:56;100566.38;;;9.61;100.00
1207;BME280;593;53.184;8.216;2022-11-15T01:37:21;100561.22;;;9.60;100.00
1207;BME280;593;53.184;8.216;2022-11-15T01:39:47;100560.69;;;9.58;100.00
1207;BME280;593;53.184;8.216;2022-11-15T01:42:13;100553.59;;;9.57;100.00
1207;BME280;593;53.184;8.216;2022-11-15T01:44:42;100547.66;;;9.55;100.00
1207;BME280;593;53.184;8.216;2022-11-15T01:47:22;100522.22;;;9.41;100.00
1207;BME280;593;53.184;8.216;2022-11-15T01:52:22;100538.19;;;9.47;100.00
1207;BME280;593;53.184;8.216;2022-11-15T01:54:53;100517.88;;;9.35;100.00
1207;BME280;593;53.184;8.216;2022-11-15T01:57:19;100530.06;;;9.42;100.00
1207;BME280;593;53.184;8.216;2022-11-15T01:59:45;100529.28;;;9.42;100.00
1207;BME280;593;53.184;8.216;2022-11-15T02:02:11;100528.72;;;9.35;100.00
1207;BME280;593;53.184;8.216;2022-11-15T02:04:45;100531.19;;;9.36;100.00
1207;BME280;593;53.184;8.216;2022-11-15T02:07:15;100517.88;;;9.35;100.00
1207;BME280;593;53.184;8.216;2022-11-15T02:09:42;100525.50;;;9.33;100.00
1207;BME280;593;53.184;8.216;2022-11-15T02:12:09;100497.34;;;9.14;100.00
1207;BME280;593;53.184;8.216;2022-11-15T02:14:39;100498.16;;;9.14;100.00
1207;BME280;593;53.184;8.216;2022-11-15T02:22:34;100457.25;;;9.00;100.00
1207;BME280;593;53.184;8.216;2022-11-15T02:25:04;100511.41;;;9.31;100.00
1207;BME280;593;53.184;8.216;2022-11-15T02:32:50;100502.97;;;9.27;100.00
1207;BME280;593;53.184;8.216;2022-11-15T02:41:27;100501.91;;;9.28;100.00
1207;BME280;593;53.184;8.216;2022-11-15T02:44:02;100502.69;;;9.34;100.00
1207;BME280;593;53.184;8.216;2022-11-15T02:46:38;100498.09;;;9.34;100.00
1207;BME280;593;53.184;8.216;2022-11-15T02:49:29;100501.03;;;9.38;100.00
1207;BME280;593;53.184;8.216;2022-11-15T02:51:56;100496.13;;;9.40;100.00
1207;BME280;593;53.184;8.216;2022-11-15T02:54:24;100499.66;;;9.40;100.00
1207;BME280;593;53.184;8.216;2022-11-15T02:56:53;100496.41;;;9.43;100.00
1207;BME280;593;53.184;8.216;2022-11-15T03:02:21;100495.88;;;9.41;100.00
1207;BME280;593;53.184;8.216;2022-11-15T03:04:52;100495.56;;;9.48;100.00
1207;BME280;593;53.184;8.216;2022-11-15T03:17:51;100503.38;;;9.59;100.00
1207;BME280;593;53.184;8.216;2022-11-15T03:20:18;100505.28;;;9.59;100.00
1207;BME280;593;53.184;8.216;2022-11-15T03:22:46;100499.28;;;9.62;100.00
1207;BME280;593;53.184;8.216;2022-11-15T03:25:18;100496.00;;;9.65;100.00
1207;BME280;593;53.184;8.216;2022-11-15T03:27:49;100503.06;;;9.66;100.00
1207;BME280;593;53.184;8.216;2022-11-15T03:30:15;100495.47;;;9.68;100.00
1207;BME280;593;53.184;8.216;2022-11-15T03:32:47;100485.41;;;9.68;100.00
1207;BME280;593;53.184;8.216;2022-11-15T03:35:25;100495.44;;;9.73;100.00
1207;BME280;593;53.184;8.216;2022-11-15T03:37:55;100487.00;;;9.75;100.00
1207;BME280;593;53.184;8.216;2022-11-15T03:40:29;100489.16;;;9.78;100.00
1207;BME280;593;53.184;8.216;2022-11-15T03:43:09;100490.50;;;9.80;100.00
1207;BME280;593;53.184;8.216;2022-11-15T03:45:45;100482.06;;;9.82;100.00
1207;BME280;593;53.184;8.216;2022-11-15T03:48:17;100474.47;;;9.84;100.00
1207;BME280;593;53.184;8.216;2022-11-15T03:50:44;100478.50;;;9.86;100.00
1207;BME280;593;53.184;8.216;2022-11-15T03:53:11;100474.41;;;9.89;100.00
1207;BME280;593;53.184;8.216;2022-11-15T03:55:37;100474.94;;;9.91;100.00
1207;BME280;593;53.184;8.216;2022-11-15T03:58:02;100487.16;;;9.93;100.00
1207;BME280;593;53.184;8.216;2022-11-15T04:00:28;100464.94;;;9.86;100.00
1207;BME280;593;53.184;8.216;2022-11-15T04:02:53;100470.81;;;9.98;100.00
1207;BME280;593;53.184;8.216;2022-11-15T04:05:19;100472.44;;;9.99;100.00
1207;BME280;593;53.184;8.216;2022-11-15T04:07:44;100470.25;;;10.01;100.00
1207;BME280;593;53.184;8.216;2022-11-15T04:10:11;100474.00;;;10.05;100.00
1207;BME280;593;53.184;8.216;2022-11-15T04:12:38;100464.81;;;10.01;100.00
1207;BME280;593;53.184;8.216;2022-11-15T04:15:14;100469.09;;;10.07;100.00
1207;BME280;593;53.184;8.216;2022-11-15T04:20:26;100452.84;;;10.02;100.00
1207;BME280;593;53.184;8.216;2022-11-15T04:23:11;100472.38;;;10.14;100.00
1207;BME280;593;53.184;8.216;2022-11-15T04:25:59;100474.78;;;10.16;100.00
1207;BME280;593;53.184;8.216;2022-11-15T04:28:25;100469.34;;;10.16;100.00
1207;BME280;593;53.184;8.216;2022-11-15T04:30:53;100472.06;;;10.16;100.00
1207;BME280;593;53.184;8.216;2022-11-15T04:33:19;100475.81;;;10.20;100.00
1207;BME280;593;53.184;8.216;2022-11-15T04:35:45;100482.59;;;10.22;100.00
1207;BME280;593;53.184;8.216;2022-11-15T04:38:30;100483.16;;;10.24;100.00
1207;BME280;593;53.184;8.216;2022-11-15T04:40:55;100482.03;;;10.25;100.00
1207;BME280;593;53.184;8.216;2022-11-15T04:43:21;100485.00;;;10.29;100.00
1207;BME280;593;53.184;8.216;2022-11-15T04:45:46;100465.25;;;10.18;100.00
1207;BME280;593;53.184;8.216;2022-11-15T04:48:11;100473.63;;;10.27;100.00
1207;BME280;593;53.184;8.216;2022-11-15T04:50:37;100460.34;;;10.20;100.00
1207;BME280;593;53.184;8.216;2022-11-15T04:53:02;100459.53;;;10.20;100.00
1207;BME280;593;53.184;8.216;2022-11-15T04:55:27;100484.66;;;10.36;100.00
1207;BME280;593;53.184;8.216;2022-11-15T04:57:59;100487.34;;;10.41;100.00
1207;BME280;593;53.184;8.216;2022-11-15T05:00:26;100475.44;;;10.37;100.00
1207;BME280;593;53.184;8.216;2022-11-15T05:02:54;100488.97;;;10.42;100.00
1207;BME280;593;53.184;8.216;2022-11-15T05:05:38;100474.84;;;10.40;100.00
1207;BME280;593;53.184;8.216;2022-11-15T05:08:04;100484.03;;;10.49;100.00
1207;BME280;593;53.184;8.216;2022-11-15T05:10:29;100453.69;;;10.37;100.00
1207;BME280;593;53.184;8.216;2022-11-15T05:12:55;100462.56;;;10.42;100.00
1207;BME280;593;53.184;8.216;2022-11-15T05:15:20;100473.09;;;10.54;100.00
1207;BME280;593;53.184;8.216;2022-11-15T05:17:45;100480.13;;;10.55;100.00
1207;BME280;593;53.184;8.216;2022-11-15T05:20:13;100465.19;;;10.52;100.00
1207;BME280;593;53.184;8.216;2022-11-15T05:22:39;100471.41;;;10.58;100.00
1207;BME280;593;53.184;8.216;2022-11-15T05:25:05;100468.13;;;10.61;100.00
1207;BME280;593;53.184;8.216;2022-11-15T05:27:30;100462.16;;;10.59;100.00
1207;BME280;593;53.184;8.216;2022-11-15T05:29:56;100459.44;;;10.59;100.00
1207;BME280;593;53.184;8.216;2022-11-15T05:32:21;100445.28;;;10.62;100.00
1207;BME280;593;53.184;8.216;2022-11-15T05:34:46;100460.16;;;10.69;100.00
1207;BME280;593;53.184;8.216;2022-11-15T05:37:13;100452.00;;;10.69;100.00
1207;BME280;593;53.184;8.216;2022-11-15T05:39:39;100456.56;;;10.74;100.00
1207;BME280;593;53.184;8.216;2022-11-15T05:42:11;100447.03;;;10.76;100.00
1207;BME280;593;53.184;8.216;2022-11-15T05:44:38;100425.94;;;10.63;100.00
1207;BME280;593;53.184;8.216;2022-11-15T05:47:08;100440.53;;;10.72;100.00
1207;BME280;593;53.184;8.216;2022-11-15T05:49:35;100447.47;;;10.83;100.00
1207;BME280;593;53.184;8.216;2022-11-15T05:52:05;100451.88;;;10.79;100.00
1207;BME280;593;53.184;8.216;2022-11-15T05:54:33;100457.28;;;10.84;100.00
1207;BME280;593;53.184;8.216;2022-11-15T05:56:59;100466.16;;;10.90;100.00
1207;BME280;593;53.184;8.216;2022-11-15T05:59:25;100452.03;;;10.88;100.00
1207;BME280;593;53.184;8.216;2022-11-15T06:01:50;100456.97;;;10.86;100.00
1207;BME280;593;53.184;8.216;2022-11-15T06:04:16;100475.91;;;10.96;100.00
1207;BME280;593;53.184;8.216;2022-11-15T06:06:41;100468.25;;;10.98;100.00
1207;BME280;593;53.184;8.216;2022-11-15T06:09:06;100472.63;;;10.99;100.00
1207;BME280;593;53.184;8.216;2022-11-15T06:11:32;100463.34;;;11.00;100.00
1207;BME280;593;53.184;8.216;2022-11-15T06:13:57;100441.69;;;10.90;100.00
1207;BME280;593;53.184;8.216;2022-11-15T06:16:22;100466.88;;;11.01;100.00
1207;BME280;593;53.184;8.216;2022-11-15T06:18:48;100457.09;;;11.00;100.00
1207;BME280;593;53.184;8.216;2022-11-15T06:21:13;100472.25;;;11.06;100.00
1207;BME280;593;53.184;8.216;2022-11-15T06:23:38;100444.69;;;10.88;100.00
1207;BME280;593;53.184;8.216;2022-11-15T06:26:04;100468.66;;;11.10;100.00
1207;BME280;593;53.184;8.216;2022-11-15T06:28:31;100459.47;;;11.06;100.00
1207;BME280;593;53.184;8.216;2022-11-15T06:31:06;100474.66;;;11.12;100.00
1207;BME280;593;53.184;8.216;2022-11-15T06:33:31;100476.25;;;11.13;100.00
1207;BME280;593;53.184;8.216;2022-11-15T06:36:03;100464.59;;;11.08;100.00
1207;BME280;593;53.184;8.216;2022-11-15T06:38:30;100470.00;;;11.13;100.00
1207;BME280;593;53.184;8.216;2022-11-15T06:41:03;100468.91;;;11.14;100.00
1207;BME280;593;53.184;8.216;2022-11-15T06:43:29;100479.41;;;11.20;100.00
1207;BME280;593;53.184;8.216;2022-11-15T06:45:54;100444.28;;;11.00;100.00
1207;BME280;593;53.184;8.216;2022-11-15T06:48:20;100473.16;;;11.20;100.00
1207;BME280;593;53.184;8.216;2022-11-15T06:50:52;100476.63;;;11.25;100.00
1207;BME280;593;53.184;8.216;2022-11-15T06:53:18;100474.22;;;11.24;100.00
1207;BME280;593;53.184;8.216;2022-11-15T06:55:43;100476.19;;;11.18;100.00
1207;BME280;593;53.184;8.216;2022-11-15T06:58:08;100474.78;;;11.21;100.00
1207;BME280;593;53.184;8.216;2022-11-15T07:00:34;100495.06;;;11.33;100.00
1207;BME280;593;53.184;8.216;2022-11-15T07:03:00;100492.34;;;11.33;100.00
1207;BME280;593;53.184;8.216;2022-11-15T07:05:26;100496.91;;;11.38;100.00
1207;BME280;593;53.184;8.216;2022-11-15T07:07:52;100493.91;;;11.39;100.00
1207;BME280;593;53.184;8.216;2022-11-15T07:10:18;100499.94;;;11.36;100.00
1207;BME280;593;53.184;8.216;2022-11-15T07:12:49;100505.81;;;11.43;100.00
1207;BME280;593;53.184;8.216;2022-11-15T07:15:16;100505.53;;;11.45;100.00
1207;BME280;593;53.184;8.216;2022-11-15T07:17:41;100480.63;;;11.33;100.00
1207;BME280;593;53.184;8.216;2022-11-15T07:20:07;100499.50;;;11.48;100.00
1207;BME280;593;53.184;8.216;2022-11-15T07:22:32;100499.22;;;11.49;100.00
1207;BME280;593;53.184;8.216;2022-11-15T07:24:58;100484.09;;;11.38;100.00
1207;BME280;593;53.184;8.216;2022-11-15T07:27:23;100500.56;;;11.52;100.00
1207;BME280;593;53.184;8.216;2022-11-15T07:29:48;100495.63;;;11.54;100.00
1207;BME280;593;53.184;8.216;2022-11-15T07:32:14;100499.66;;;11.56;100.00
1207;BME280;593;53.184;8.216;2022-11-15T07:34:39;100500.19;;;11.58;100.00
1207;BME280;593;53.184;8.216;2022-11-15T07:37:04;100481.56;;;11.47;100.00
1207;BME280;593;53.184;8.216;2022-11-15T07:39:30;100483.31;;;11.56;100.00
1207;BME280;593;53.184;8.216;2022-11-15T07:41:55;100484.13;;;11.57;100.00
1207;BME280;593;53.184;8.216;2022-11-15T07:44:40;100499.81;;;11.65;100.00
1207;BME280;593;53.184;8.216;2022-11-15T07:47:05;100495.75;;;11.63;100.00
1207;BME280;593;53.184;8.216;2022-11-15T07:49:31;100493.84;;;11.63;100.00
1207;BME280;593;53.184;8.216;2022-11-15T07:51:56;100481.41;;;11.57;100.00
1207;BME280;593;53.184;8.216;2022-11-15T07:54:21;100472.63;;;11.60;100.00
1207;BME280;593;53.184;8.216;2022-11-15T07:56:47;100493.16;;;11.76;100.00
1207;BME280;593;53.184;8.216;2022-11-15T07:59:12;100490.44;;;11.76;100.00
1207;BME280;593;53.184;8.216;2022-11-15T08:01:37;100491.75;;;11.79;100.00
1207;BME280;593;53.184;8.216;2022-11-15T08:04:02;100494.72;;;11.82;100.00
1207;BME280;593;53.184;8.216;2022-11-15T08:06:28;100483.88;;;11.77;100.00
1207;BME280;593;53.184;8.216;2022-11-15T08:08:53;100493.38;;;11.80;100.00
1207;BME280;593;53.184;8.216;2022-11-15T08:11:19;100496.03;;;11.85;100.00
1207;BME280;593;53.184;8.216;2022-11-15T08:13:44;100487.88;;;11.85;100.00
1207;BME280;593;53.184;8.216;2022-11-15T08:16:09;100476.50;;;11.78;100.00
1207;BME280;593;53.184;8.216;2022-11-15T08:18:37;100481.28;;;11.86;100.00
1207;BME280;593;53.184;8.216;2022-11-15T08:21:02;100486.97;;;11.89;100.00
1207;BME280;593;53.184;8.216;2022-11-15T08:23:28;100485.56;;;11.92;100.00
1207;BME280;593;53.184;8.216;2022-11-15T08:26:02;100483.44;;;11.89;100.00
1207;BME280;593;53.184;8.216;2022-11-15T08:28:28;100488.50;;;11.95;100.00
1207;BME280;593;53.184;8.216;2022-11-15T08:30:54;100474.66;;;11.92;100.00
1207;BME280;593;53.184;8.216;2022-11-15T08:33:19;100483.34;;;11.94;100.00
1207;BME280;593;53.184;8.216;2022-11-15T08:35:45;100486.50;;;12.01;100.00
1207;BME280;593;53.184;8.216;2022-11-15T08:38:10;100491.47;;;11.99;100.00
1207;BME280;593;53.184;8.216;2022-11-15T08:40:36;100500.06;;;12.06;100.00
1207;BME280;593;53.184;8.216;2022-11-15T08:43:01;100496.53;;;12.05;100.00
1207;BME280;593;53.184;8.216;2022-11-15T08:45:28;100500.66;;;12.03;100.00
1207;BME280;593;53.184;8.216;2022-11-15T08:47:54;100501.09;;;12.10;100.00
1207;BME280;593;53.184;8.216;2022-11-15T08:50:20;100495.19;;;12.03;100.00
1207;BME280;593;53.184;8.216;2022-11-15T08:52:45;100499.69;;;12.12;100.00
1207;BME280;593;53.184;8.216;2022-11-15T08:55:11;100475.63;;;12.01;100.00
1207;BME280;593;53.184;8.216;2022-11-15T08:57:36;100513.53;;;12.16;100.00
1207;BME280;593;53.184;8.216;2022-11-15T09:00:03;100517.59;;;12.18;100.00
1207;BME280;593;53.184;8.216;2022-11-15T09:02:28;100513.22;;;12.17;100.00
1207;BME280;593;53.184;8.216;2022-11-15T09:04:54;100510.22;;;12.19;100.00
1207;BME280;593;53.184;8.216;2022-11-15T09:07:19;100511.03;;;12.19;100.00
1207;BME280;593;53.184;8.216;2022-11-15T09:09:44;100500.66;;;12.21;100.00
1207;BME280;593;53.184;8.216;2022-11-15T09:12:10;100509.03;;;12.25;100.00
1207;BME280;593;53.184;8.216;2022-11-15T09:14:35;100504.91;;;12.28;100.00
1207;BME280;593;53.184;8.216;2022-11-15T09:17:00;100503.56;;;12.25;100.00
1207;BME280;593;53.184;8.216;2022-11-15T09:19:26;100499.97;;;12.30;100.00
1207;BME280;593;53.184;8.216;2022-11-15T09:21:52;100501.31;;;12.32;100.00
1207;BME280;593;53.184;8.216;2022-11-15T09:24:17;100497.94;;;12.35;100.00
1207;BME280;593;53.184;8.216;2022-11-15T09:26:43;100494.94;;;12.37;100.00
1207;BME280;593;53.184;8.216;2022-11-15T09:29:09;100488.69;;;12.36;100.00
1207;BME280;593;53.184;8.216;2022-11-15T09:31:34;100495.97;;;12.41;100.00
1207;BME280;593;53.184;8.216;2022-11-15T09:33:59;100493.44;;;12.44;100.00
1207;BME280;593;53.184;8.216;2022-11-15T09:36:25;100489.91;;;12.44;100.00
1207;BME280;593;53.184;8.216;2022-11-15T09:38:50;100487.91;;;12.49;100.00
1207;BME280;593;53.184;8.216;2022-11-15T09:41:30;100491.72;;;12.48;100.00
1207;BME280;593;53.184;8.216;2022-11-15T09:44:20;100490.84;;;12.53;100.00
1207;BME280;593;53.184;8.216;2022-11-15T09:49:56;100483.69;;;12.57;100.00
1207;BME280;593;53.184;8.216;2022-11-15T09:52:23;100485.81;;;12.60;100.00
1207;BME280;593;53.184;8.216;2022-11-15T09:54:51;100484.09;;;12.64;100.00
1207;BME280;593;53.184;8.216;2022-11-15T10:05:26;100475.72;;;12.74;100.00
1207;BME280;593;53.184;8.216;2022-11-15T10:08:22;100477.25;;;12.80;100.00
1207;BME280;593;53.184;8.216;2022-11-15T10:10:56;100470.41;;;12.82;100.00
1207;BME280;593;53.184;8.216;2022-11-15T10:13:34;100462.50;;;12.81;100.00
1207;BME280;593;53.184;8.216;2022-11-15T10:18:56;100470.47;;;12.91;100.00
1207;BME280;593;53.184;8.216;2022-11-15T10:24:25;100455.63;;;12.97;100.00
1207;BME280;593;53.184;8.216;2022-11-15T10:26:54;100465.16;;;13.00;100.00
1207;BME280;593;53.184;8.216;2022-11-15T10:29:21;100460.13;;;13.07;100.00
1207;BME280;593;53.184;8.216;2022-11-15T10:31:47;100452.09;;;13.10;100.00
1207;BME280;593;53.184;8.216;2022-11-15T10:34:15;100448.78;;;13.13;100.00
1207;BME280;593;53.184;8.216;2022-11-15T10:36:45;100440.78;;;13.17;100.00
1207;BME280;593;53.184;8.216;2022-11-15T10:39:13;100440.47;;;13.18;100.00
1207;BME280;593;53.184;8.216;2022-11-15T10:41:41;100442.81;;;13.25;100.00
1207;BME280;593;53.184;8.216;2022-11-15T10:46:34;100427.09;;;13.30;100.00
1207;BME280;593;53.184;8.216;2022-11-15T10:49:16;100430.53;;;13.36;100.00
1207;BME280;593;53.184;8.216;2022-11-15T10:51:47;100428.81;;;13.40;100.00
1207;BME280;593;53.184;8.216;2022-11-15T10:54:16;100416.28;;;13.39;100.00
1207;BME280;593;53.184;8.216;2022-11-15T10:56:52;100418.56;;;13.45;100.00
1207;BME280;593;53.184;8.216;2022-11-15T10:59:24;100408.94;;;13.48;100.00
1207;BME280;593;53.184;8.216;2022-11-15T11:01:51;100403.47;;;13.48;100.00
1207;BME280;593;53.184;8.216;2022-11-15T11:04:16;100406.41;;;13.52;100.00
1207;BME280;593;53.184;8.216;2022-11-15T11:06:51;100402.25;;;13.54;100.00
1207;BME280;593;53.184;8.216;2022-11-15T11:09:23;100392.31;;;13.58;100.00
1207;BME280;593;53.184;8.216;2022-11-15T11:11:51;100394.44;;;13.61;100.00
1207;BME280;593;53.184;8.216;2022-11-15T11:14:25;100397.38;;;13.65;100.00
1207;BME280;593;53.184;8.216;2022-11-15T11:33:57;100383.41;;;13.88;100.00
1207;BME280;593;53.184;8.216;2022-11-15T11:36:20;100389.34;;;13.90;100.00
1207;BME280;593;53.184;8.216;2022-11-15T11:44:11;100382.03;;;13.99;100.00
1207;BME280;593;53.184;8.216;2022-11-15T11:47:31;100381.41;;;14.02;100.00
1207;BME280;593;53.184;8.216;2022-11-15T11:50:19;100382.19;;;14.03;100.00
1207;BME280;593;53.184;8.216;2022-11-15T11:53:25;100377.75;;;14.07;100.00
1207;BME280;593;53.184;8.216;2022-11-15T11:55:50;100380.63;;;14.10;100.00
1207;BME280;593;53.184;8.216;2022-11-15T12:00:54;100369.56;;;14.15;100.00
1207;BME280;593;53.184;8.216;2022-11-15T12:05:50;100358.00;;;14.19;100.00
1207;BME280;593;53.184;8.216;2022-11-15T12:13:44;100353.91;;;14.30;100.00
1207;BME280;593;53.184;8.216;2022-11-15T12:16:21;100350.72;;;14.36;100.00
1207;BME280;593;53.184;8.216;2022-11-15T12:18:50;100347.69;;;14.38;100.00
1207;BME280;593;53.184;8.216;2022-11-15T12:24:06;100340.94;;;14.44;100.00
1207;BME280;593;53.184;8.216;2022-11-15T12:26:46;100335.66;;;14.47;100.00
1207;BME280;593;53.184;8.216;2022-11-15T12:29:19;100339.22;;;14.48;100.00
1207;BME280;593;53.184;8.216;2022-11-15T12:31:50;100338.25;;;14.52;100.00
1207;BME280;593;53.184;8.216;2022-11-15T12:36:44;100321.00;;;14.52;100.00
1207;BME280;593;53.184;8.216;2022-11-15T12:39:11;100331.50;;;14.58;100.00
1207;BME280;593;53.184;8.216;2022-11-15T13:00:00;100308.69;;;14.80;100.00
1207;BME280;593;53.184;8.216;2022-11-15T13:02:39;100308.69;;;14.80;100.00
1207;BME280;593;53.184;8.216;2022-11-15T13:17:55;100315.16;;;14.84;100.00
1207;BME280;593;53.184;8.216;2022-11-15T13:20:32;100323.34;;;14.84;100.00
1207;BME280;593;53.184;8.216;2022-11-15T13:23:12;100322.41;;;14.89;100.00
1207;BME280;593;53.184;8.216;2022-11-15T13:28:34;100323.84;;;14.86;100.00
1207;BME280;593;53.184;8.216;2022-11-15T13:31:25;100324.66;;;14.87;100.00
1207;BME280;593;53.184;8.216;2022-11-15T13:33:55;100322.25;;;14.85;100.00
1207;BME280;593;53.184;8.216;2022-11-15T13:36:27;100314.03;;;14.85;100.00
1207;BME280;593;53.184;8.216;2022-11-15T13:39:04;100316.78;;;14.85;100.00
1207;BME280;593;53.184;8.216;2022-11-15T13:41:35;100307.75;;;14.85;100.00
1207;BME280;593;53.184;8.216;2022-11-15T13:44:02;100305.31;;;14.83;100.00
1207;BME280;593;53.184;8.216;2022-11-15T13:46:33;100308.41;;;14.90;100.00
1207;BME280;593;53.184;8.216;2022-11-15T13:48:59;100308.41;;;14.90;100.00
1207;BME280;593;53.184;8.216;2022-11-15T13:56:25;100293.41;;;14.88;100.00
1207;BME280;593;53.184;8.216;2022-11-15T13:58:52;100288.25;;;14.86;100.00
1207;BME280;593;53.184;8.216;2022-11-15T14:01:21;100300.19;;;14.90;100.00
1207;BME280;593;53.184;8.216;2022-11-15T14:03:56;100292.59;;;14.87;100.00
1207;BME280;593;53.184;8.216;2022-11-15T14:06:25;100292.28;;;14.89;100.00
1207;BME280;593;53.184;8.216;2022-11-15T14:11:34;100283.25;;;14.88;100.00
1207;BME280;593;53.184;8.216;2022-11-15T14:16:35;100282.75;;;14.86;100.00
1207;BME280;593;53.184;8.216;2022-11-15T14:19:02;100276.00;;;14.84;100.00
1207;BME280;593;53.184;8.216;2022-11-15T14:21:27;100276.16;;;14.78;100.00
1207;BME280;593;53.184;8.216;2022-11-15T14:23:53;100279.38;;;14.81;100.00
1207;BME280;593;53.184;8.216;2022-11-15T14:26:29;100282.63;;;14.83;100.00
1207;BME280;593;53.184;8.216;2022-11-15T14:28:55;100279.69;;;14.79;100.00
1207;BME280;593;53.184;8.216;2022-11-15T14:31:20;100280.81;;;14.78;100.00
1207;BME280;593;53.184;8.216;2022-11-15T14:33:46;100279.22;;;14.77;100.00
1207;BME280;593;53.184;8.216;2022-11-15T14:36:14;100280.31;;;14.76;100.00
1207;BME280;593;53.184;8.216;2022-11-15T14:38:40;100272.28;;;14.71;100.00
1207;BME280;593;53.184;8.216;2022-11-15T14:41:19;100273.22;;;14.66;100.00
1207;BME280;593;53.184;8.216;2022-11-15T14:43:45;100284.66;;;14.68;100.00
1207;BME280;593;53.184;8.216;2022-11-15T14:46:11;100269.19;;;14.55;100.00
1207;BME280;593;53.184;8.216;2022-11-15T14:48:36;100265.50;;;14.60;100.00
1207;BME280;593;53.184;8.216;2022-11-15T14:51:02;100265.00;;;14.58;100.00
1207;BME280;593;53.184;8.216;2022-11-15T14:53:27;100260.31;;;14.58;100.00
1207;BME280;593;53.184;8.216;2022-11-15T14:55:52;100251.97;;;14.55;100.00
1207;BME280;593;53.184;8.216;2022-11-15T14:58:18;100247.13;;;14.52;100.00
1207;BME280;593;53.184;8.216;2022-11-15T15:00:43;100236.31;;;14.47;100.00
1207;BME280;593;53.184;8.216;2022-11-15T15:03:09;100242.91;;;14.46;100.00
1207;BME280;593;53.184;8.216;2022-11-15T15:05:37;100239.69;;;14.44;100.00
1207;BME280;593;53.184;8.216;2022-11-15T15:08:03;100248.22;;;14.42;100.00
1207;BME280;593;53.184;8.216;2022-11-15T15:10:32;100236.13;;;14.35;100.00
1207;BME280;593;53.184;8.216;2022-11-15T15:12:58;100230.97;;;14.33;100.00
1207;BME280;593;53.184;8.216;2022-11-15T15:15:29;100231.28;;;14.32;100.00
1207;BME280;593;53.184;8.216;2022-11-15T15:17:56;100232.69;;;14.29;100.00
1207;BME280;593;53.184;8.216;2022-11-15T15:20:21;100222.38;;;14.26;100.00
1207;BME280;593;53.184;8.216;2022-11-15T15:22:46;100217.53;;;14.23;100.00
1207;BME280;593;53.184;8.216;2022-11-15T15:25:31;100229.94;;;14.21;100.00
1207;BME280;593;53.184;8.216;2022-11-15T15:27:58;100209.00;;;14.07;100.00
1207;BME280;593;53.184;8.216;2022-11-15T15:30:24;100206.75;;;14.09;100.00
1207;BME280;593;53.184;8.216;2022-11-15T15:32:50;100211.72;;;14.07;100.00
1207;BME280;593;53.184;8.216;2022-11-15T15:35:17;100210.44;;;14.05;100.00